createdAt,value
2022-08-05T00:00:34.728Z,8.10
2022-08-05T00:03:15.617Z,9.90
2022-08-05T00:06:05.236Z,7.90
2022-08-05T00:08:35.216Z,10.40
2022-08-05T00:11:23.794Z,7.90
2022-08-05T00:13:58.597Z,16.30
2022-08-05T00:16:36.053Z,11.70
2022-08-05T00:19:14.767Z,6.60
2022-08-05T00:21:42.811Z,9.70
2022-08-05T00:24:16.210Z,9.60
2022-08-05T00:26:51.759Z,10.40
2022-08-05T00:29:25.798Z,11.60
2022-08-05T00:32:13.109Z,8.80
2022-08-05T00:35:05.809Z,9.90
2022-08-05T00:37:50.670Z,8.60
2022-08-05T00:40:28.386Z,7.50
2022-08-05T00:43:00.093Z,15.00
2022-08-05T00:45:42.921Z,10.70
2022-08-05T00:48:18.568Z,7.30
2022-08-05T00:50:55.819Z,7.00
2022-08-05T00:54:00.253Z,9.90
2022-08-05T00:56:13.269Z,12.80
2022-08-05T00:58:45.673Z,8.30
2022-08-05T01:01:15.814Z,12.50
2022-08-05T01:03:53.099Z,12.70
2022-08-05T01:06:21.568Z,14.40
2022-08-05T01:09:00.699Z,9.60
2022-08-05T01:11:37.167Z,9.80
2022-08-05T01:14:10.780Z,8.70
2022-08-05T01:16:52.764Z,8.10
2022-08-05T01:19:46.225Z,9.00
2022-08-05T01:22:36.361Z,10.20
2022-08-05T01:25:19.348Z,7.60
2022-08-05T01:28:25.306Z,7.30
2022-08-05T01:31:25.362Z,7.90
2022-08-05T01:34:18.950Z,7.50
2022-08-05T01:37:24.552Z,8.80
2022-08-05T01:39:58.789Z,7.90
2022-08-05T01:42:29.967Z,9.90
2022-08-05T01:45:02.205Z,8.40
2022-08-05T01:47:39.254Z,12.00
2022-08-05T01:50:30.567Z,10.70
2022-08-05T01:53:04.956Z,10.80
2022-08-05T01:55:36.125Z,9.10
2022-08-05T01:58:29.500Z,11.70
2022-08-05T02:00:58.811Z,13.90
2022-08-05T02:03:34.529Z,12.40
2022-08-05T02:06:33.576Z,14.10
2022-08-05T02:08:58.147Z,10.00
2022-08-05T02:11:48.113Z,8.00
2022-08-05T02:14:31.929Z,18.70
2022-08-05T02:18:28.061Z,14.20
2022-08-05T02:20:23.313Z,16.60
2022-08-05T02:22:59.723Z,25.10
2022-08-05T02:25:34.270Z,11.80
2022-08-05T02:28:28.382Z,19.50
2022-08-05T02:31:06.142Z,19.20
2022-08-05T02:33:40.211Z,14.50
2022-08-05T02:36:13.664Z,10.20
2022-08-05T02:38:53.183Z,11.80
2022-08-05T02:41:28.636Z,11.00
2022-08-05T02:44:12.238Z,10.90
2022-08-05T02:46:58.580Z,8.40
2022-08-05T02:49:36.479Z,13.30
2022-08-05T02:52:10.070Z,9.70
2022-08-05T02:54:42.712Z,12.00
2022-08-05T02:58:20.021Z,11.50
2022-08-05T03:00:12.074Z,10.30
2022-08-05T03:02:42.849Z,11.10
2022-08-05T03:05:15.355Z,7.40
2022-08-05T03:08:06.584Z,11.40
2022-08-05T03:10:32.583Z,12.40
2022-08-05T03:15:28.296Z,9.80
2022-08-05T03:17:57.839Z,9.20
2022-08-05T03:20:26.610Z,15.20
2022-08-05T03:22:57.548Z,10.80
2022-08-05T03:25:33.617Z,9.10
2022-08-05T03:28:18.648Z,14.10
2022-08-05T03:30:49.626Z,8.60
2022-08-05T03:33:19.495Z,11.50
2022-08-05T03:35:48.727Z,13.00
2022-08-05T03:38:18.021Z,7.50
2022-08-05T03:41:08.139Z,17.60
2022-08-05T03:44:09.947Z,10.10
2022-08-05T03:46:29.515Z,14.60
2022-08-05T03:48:58.753Z,10.20
2022-08-05T03:52:49.072Z,8.40
2022-08-05T03:56:01.222Z,9.60
2022-08-05T03:57:42.436Z,13.60
2022-08-05T04:00:15.838Z,12.70
2022-08-05T04:02:57.857Z,6.90
2022-08-05T04:05:34.644Z,6.60
2022-08-05T04:08:29.999Z,9.80
2022-08-05T04:10:57.229Z,9.90
2022-08-05T04:13:27.827Z,7.90
2022-08-05T04:16:14.766Z,10.20
2022-08-05T04:18:47.541Z,12.80
2022-08-05T04:22:09.702Z,11.50
2022-08-05T04:24:19.203Z,7.70
2022-08-05T04:26:50.891Z,9.30
2022-08-05T04:29:19.777Z,13.60
2022-08-05T04:31:48.313Z,11.80
2022-08-05T04:34:24.484Z,8.20
2022-08-05T04:37:03.233Z,12.20
2022-08-05T04:39:32.420Z,7.50
2022-08-05T04:42:04.059Z,8.80
2022-08-05T04:44:32.354Z,14.10
2022-08-05T04:47:09.766Z,8.60
2022-08-05T04:50:02.450Z,7.40
2022-08-05T04:52:28.424Z,7.70
2022-08-05T04:54:57.684Z,13.70
2022-08-05T04:57:29.143Z,7.10
2022-08-05T04:59:58.372Z,7.00
2022-08-05T05:02:42.010Z,9.20
2022-08-05T05:05:26.333Z,8.20
2022-08-05T05:10:33.185Z,5.70
2022-08-05T05:13:03.795Z,10.60
2022-08-05T05:15:57.341Z,8.50
2022-08-05T05:18:31.224Z,10.80
2022-08-05T05:21:03.815Z,7.10
2022-08-05T05:24:02.286Z,9.60
2022-08-05T05:26:28.778Z,9.00
2022-08-05T05:29:01.422Z,8.40
2022-08-05T05:34:01.982Z,6.60
2022-08-05T05:36:31.833Z,12.70
2022-08-05T05:39:00.320Z,10.50
2022-08-05T05:41:40.631Z,5.20
2022-08-05T05:44:35.980Z,8.50
2022-08-05T05:47:04.362Z,8.00
2022-08-05T05:49:41.376Z,8.60
2022-08-05T05:52:10.563Z,5.40
2022-08-05T05:54:50.637Z,9.10
2022-08-05T05:57:20.404Z,6.90
2022-08-05T05:59:48.780Z,6.40
2022-08-05T06:02:17.320Z,6.40
2022-08-05T06:05:03.496Z,6.60
2022-08-05T06:07:42.073Z,13.00
2022-08-05T06:10:25.754Z,10.40
2022-08-05T06:12:57.338Z,5.40
2022-08-05T06:16:31.790Z,6.40
2022-08-05T06:18:13.852Z,6.00
2022-08-05T06:20:43.512Z,14.30
2022-08-05T06:23:15.951Z,10.80
2022-08-05T06:26:03.544Z,8.00
2022-08-05T06:28:32.097Z,8.70
2022-08-05T06:31:00.486Z,10.60
2022-08-05T06:34:07.136Z,18.20
2022-08-05T06:36:27.980Z,15.30
2022-08-05T06:39:16.079Z,13.70
2022-08-05T06:41:45.019Z,16.40
2022-08-05T06:44:14.272Z,19.00
2022-08-05T06:46:43.625Z,18.60
2022-08-05T06:49:12.277Z,20.40
2022-08-05T06:51:41.818Z,14.90
2022-08-05T06:54:11.975Z,15.50
2022-08-05T06:56:54.456Z,19.60
2022-08-05T06:59:23.537Z,25.50
2022-08-05T07:01:52.775Z,20.20
2022-08-05T07:04:21.391Z,23.70
2022-08-05T07:06:50.393Z,13.70
2022-08-05T07:09:19.636Z,17.40
2022-08-05T07:11:51.697Z,13.90
2022-08-05T07:14:38.470Z,14.30
2022-08-05T07:18:02.352Z,17.00
2022-08-05T07:22:44.912Z,14.50
2022-08-05T07:25:22.546Z,18.80
2022-08-05T07:27:57.337Z,21.30
2022-08-05T07:30:38.311Z,11.50
2022-08-05T07:33:17.112Z,16.20
2022-08-05T07:36:05.022Z,16.10
2022-08-05T07:38:43.500Z,8.20
2022-08-05T07:42:13.980Z,12.40
2022-08-05T07:44:14.274Z,16.60
2022-08-05T07:46:49.722Z,10.40
2022-08-05T07:49:20.009Z,9.60
2022-08-05T07:51:54.390Z,15.00
2022-08-05T07:54:30.203Z,13.30
2022-08-05T07:57:22.477Z,10.00
2022-08-05T07:59:51.107Z,13.30
2022-08-05T08:02:26.466Z,8.70
2022-08-05T08:04:56.271Z,12.50
2022-08-05T08:07:24.764Z,12.80
2022-08-05T08:09:57.019Z,8.50
2022-08-05T08:12:36.931Z,11.70
2022-08-05T08:15:09.660Z,12.90
2022-08-05T08:17:46.276Z,10.30
2022-08-05T08:21:00.108Z,16.00
2022-08-05T08:23:11.639Z,15.90
2022-08-05T08:26:02.888Z,12.70
2022-08-05T08:28:36.103Z,15.10
2022-08-05T08:31:09.098Z,13.30
2022-08-05T08:33:38.464Z,18.40
2022-08-05T08:38:56.842Z,10.60
2022-08-05T08:41:52.563Z,10.00
2022-08-05T08:45:20.238Z,9.80
2022-08-05T08:47:47.405Z,11.40
2022-08-05T08:50:29.821Z,10.90
2022-08-05T08:53:02.540Z,10.20
2022-08-05T08:56:04.879Z,15.80
2022-08-05T08:58:37.097Z,6.00
2022-08-05T09:01:16.294Z,8.70
2022-08-05T09:03:54.440Z,10.90
2022-08-05T09:06:29.306Z,9.20
2022-08-05T09:09:01.467Z,15.30
2022-08-05T09:11:53.819Z,5.90
2022-08-05T09:14:56.298Z,8.90
2022-08-05T09:17:41.169Z,9.30
2022-08-05T09:20:05.815Z,6.20
2022-08-05T09:23:07.966Z,5.50
2022-08-05T09:26:01.028Z,7.50
2022-08-05T09:28:34.346Z,6.30
2022-08-05T09:31:44.124Z,9.10
2022-08-05T09:34:01.237Z,4.10
2022-08-05T09:36:54.527Z,7.70
2022-08-05T09:39:39.577Z,5.90
2022-08-05T09:42:23.347Z,7.50
2022-08-05T09:44:56.228Z,5.50
2022-08-05T09:47:46.531Z,7.30
2022-08-05T09:50:37.780Z,6.90
2022-08-05T09:53:07.113Z,5.50
2022-08-05T09:55:56.563Z,7.30
2022-08-05T09:58:29.227Z,5.10
2022-08-05T10:01:13.260Z,6.20
2022-08-05T10:03:58.529Z,4.50
2022-08-05T10:06:28.600Z,9.50
2022-08-05T10:09:25.137Z,9.70
2022-08-05T10:12:29.967Z,5.20
2022-08-05T10:15:21.553Z,23.20
2022-08-05T10:18:13.162Z,6.90
2022-08-05T10:20:51.305Z,4.20
2022-08-05T10:23:55.609Z,7.40
2022-08-05T10:28:46.236Z,7.90
2022-08-05T10:32:54.721Z,5.60
2022-08-05T10:34:07.975Z,4.10
2022-08-05T10:36:38.700Z,3.90
2022-08-05T10:40:03.307Z,5.40
2022-08-05T10:44:47.995Z,5.50
2022-08-05T10:47:26.036Z,6.60
2022-08-05T10:50:32.563Z,5.30
2022-08-05T10:53:01.671Z,13.30
2022-08-05T10:55:32.925Z,5.50
2022-08-05T10:58:20.800Z,5.60
2022-08-05T11:00:55.449Z,5.50
2022-08-05T11:03:31.745Z,6.50
2022-08-05T11:06:04.813Z,9.40
2022-08-05T11:08:37.012Z,11.50
2022-08-05T11:11:44.805Z,5.10
2022-08-05T11:14:57.478Z,3.80
2022-08-05T11:18:00.087Z,3.30
2022-08-05T11:20:39.294Z,7.50
2022-08-05T11:24:04.297Z,7.90
2022-08-05T11:26:28.790Z,7.30
2022-08-05T11:29:12.567Z,5.50
2022-08-05T11:31:56.231Z,7.30
2022-08-05T11:34:50.767Z,5.30
2022-08-05T11:38:29.987Z,7.60
2022-08-05T11:41:34.735Z,7.20
2022-08-05T11:44:05.673Z,2.90
2022-08-05T11:46:58.670Z,12.80
2022-08-05T11:49:34.104Z,7.60
2022-08-05T11:52:08.751Z,5.00
2022-08-05T11:54:43.440Z,12.10
2022-08-05T11:57:25.530Z,7.20
2022-08-05T11:59:55.977Z,4.90
2022-08-05T12:02:36.039Z,5.70
2022-08-05T12:05:07.158Z,4.00
2022-08-05T12:08:08.962Z,8.10
2022-08-05T12:10:43.402Z,3.90
2022-08-05T12:13:27.773Z,4.10
2022-08-05T12:16:14.755Z,4.60
2022-08-05T12:18:49.114Z,4.90
2022-08-05T12:21:29.899Z,3.70
2022-08-05T12:24:07.056Z,10.30
2022-08-05T12:26:38.815Z,5.90
2022-08-05T12:29:09.911Z,5.10
2022-08-05T12:31:53.739Z,6.80
2022-08-05T12:34:28.926Z,10.00
2022-08-05T12:37:26.954Z,12.70
2022-08-05T12:40:03.492Z,4.10
2022-08-05T12:42:40.428Z,6.30
2022-08-05T12:45:10.430Z,6.50
2022-08-05T12:47:43.337Z,4.50
2022-08-05T12:50:27.180Z,4.60
2022-08-05T12:53:00.135Z,16.00
2022-08-05T12:55:32.778Z,6.60
2022-08-05T12:58:51.350Z,3.00
2022-08-05T13:02:02.360Z,3.60
2022-08-05T13:03:42.080Z,7.30
2022-08-05T13:06:18.216Z,3.90
2022-08-05T13:08:51.713Z,6.10
2022-08-05T13:11:25.451Z,6.90
2022-08-05T13:14:14.725Z,7.20
2022-08-05T13:16:56.525Z,8.90
2022-08-05T13:19:27.552Z,7.20
2022-08-05T13:22:29.717Z,4.00
2022-08-05T13:25:05.832Z,4.30
2022-08-05T13:27:39.096Z,3.90
2022-08-05T13:30:34.953Z,3.50
2022-08-05T13:33:02.252Z,2.70
2022-08-05T13:35:43.237Z,2.80
2022-08-05T13:38:30.312Z,5.80
2022-08-05T13:41:00.267Z,3.50
2022-08-05T13:43:45.891Z,4.00
2022-08-05T13:46:30.623Z,5.00
2022-08-05T13:49:11.439Z,3.50
2022-08-05T13:51:46.076Z,4.00
2022-08-05T13:54:21.238Z,4.00
2022-08-05T13:56:53.724Z,7.60
2022-08-05T13:59:27.527Z,4.50
2022-08-05T14:02:00.626Z,2.80
2022-08-05T14:04:51.067Z,4.30
2022-08-05T14:08:01.041Z,5.50
2022-08-05T14:10:19.286Z,6.00
2022-08-05T14:12:57.712Z,3.10
2022-08-05T14:16:06.076Z,3.40
2022-08-05T14:18:18.348Z,4.80
2022-08-05T14:20:48.178Z,9.30
2022-08-05T14:23:23.432Z,5.20
2022-08-05T14:25:58.464Z,9.20
2022-08-05T14:28:29.549Z,4.00
2022-08-05T14:30:59.713Z,6.70
2022-08-05T14:33:32.691Z,5.90
2022-08-05T14:36:20.551Z,3.60
2022-08-05T14:38:51.238Z,3.30
2022-08-05T14:41:19.662Z,7.50
2022-08-05T14:44:01.976Z,4.10
2022-08-05T14:46:35.099Z,3.80
2022-08-05T14:49:07.410Z,5.10
2022-08-05T14:51:42.360Z,4.60
2022-08-05T14:54:27.824Z,4.40
2022-08-05T14:56:59.598Z,5.40
2022-08-05T14:59:29.356Z,3.30
2022-08-05T15:01:58.256Z,6.30
2022-08-05T15:04:29.028Z,3.70
2022-08-05T15:06:57.356Z,3.90
2022-08-05T15:09:52.705Z,4.30
2022-08-05T15:12:16.610Z,2.80
2022-08-05T15:14:50.583Z,6.00
2022-08-05T15:17:45.896Z,4.70
2022-08-05T15:20:19.055Z,4.50
2022-08-05T15:22:54.215Z,5.00
2022-08-05T15:25:51.185Z,3.50
2022-08-05T15:28:14.796Z,4.90
2022-08-05T15:30:45.852Z,4.80
2022-08-05T15:33:56.922Z,8.70
2022-08-05T15:36:16.674Z,3.20
2022-08-05T15:38:46.448Z,5.90
2022-08-05T15:41:21.972Z,4.40
2022-08-05T15:43:54.525Z,5.90
2022-08-05T15:46:24.637Z,4.90
2022-08-05T15:49:01.001Z,4.50
2022-08-05T15:52:03.608Z,8.60
2022-08-05T15:54:34.943Z,2.90
2022-08-05T15:57:07.617Z,5.10
2022-08-05T15:59:36.521Z,4.30
2022-08-05T16:02:19.441Z,4.20
2022-08-05T16:04:49.062Z,11.50
2022-08-05T16:07:17.118Z,5.10
2022-08-05T16:09:46.287Z,4.10
2022-08-05T16:12:15.290Z,3.80
2022-08-05T16:14:43.653Z,3.90
2022-08-05T16:17:12.813Z,5.20
2022-08-05T16:20:05.501Z,7.40
2022-08-05T16:22:33.938Z,3.30
2022-08-05T16:25:05.365Z,2.40
2022-08-05T16:27:59.680Z,6.00
2022-08-05T16:30:29.153Z,5.00
2022-08-05T16:32:58.520Z,8.00
2022-08-05T16:35:28.651Z,2.40
2022-08-05T16:38:16.146Z,4.90
2022-08-05T16:40:55.487Z,4.30
2022-08-05T16:43:30.918Z,5.50
2022-08-05T16:46:03.703Z,5.10
2022-08-05T16:48:38.781Z,5.20
2022-08-05T16:51:10.125Z,3.50
2022-08-05T16:54:06.167Z,4.00
2022-08-05T16:56:30.689Z,5.80
2022-08-05T16:58:58.956Z,5.90
2022-08-05T17:01:53.115Z,6.10
2022-08-05T17:04:18.816Z,5.60
2022-08-05T17:06:53.242Z,5.50
2022-08-05T17:09:23.057Z,5.20
2022-08-05T17:11:59.161Z,8.20
2022-08-05T17:14:37.730Z,7.50
2022-08-05T17:17:14.329Z,7.10
2022-08-05T17:19:46.277Z,7.20
2022-08-05T17:22:25.113Z,10.40
2022-08-05T17:24:58.785Z,7.30
2022-08-05T17:27:34.016Z,5.50
2022-08-05T17:30:18.602Z,13.20
2022-08-05T17:32:47.999Z,5.40
2022-08-05T17:35:20.571Z,5.50
2022-08-05T17:37:49.470Z,7.10
2022-08-05T17:40:22.584Z,7.20
2022-08-05T17:42:52.970Z,5.50
2022-08-05T17:45:23.054Z,5.60
2022-08-05T17:47:55.412Z,6.80
2022-08-05T17:50:29.919Z,4.90
2022-08-05T17:53:00.901Z,7.90
2022-08-05T17:55:37.336Z,5.20
2022-08-05T17:58:12.660Z,9.80
2022-08-05T18:00:47.239Z,5.10
2022-08-05T18:06:12.018Z,10.50
2022-08-05T18:08:44.742Z,4.60
2022-08-05T18:11:23.794Z,4.60
2022-08-05T18:13:54.709Z,11.50
2022-08-05T18:16:23.767Z,10.50
2022-08-05T18:18:52.190Z,8.00
2022-08-05T18:21:22.742Z,8.00
2022-08-05T18:23:55.533Z,9.30
2022-08-05T18:26:29.584Z,6.80
2022-08-05T18:29:00.325Z,6.30
2022-08-05T18:31:33.090Z,12.40
2022-08-05T18:34:06.232Z,15.50
2022-08-05T18:36:41.137Z,22.90
2022-08-05T18:39:41.933Z,19.90
2022-08-05T18:42:06.323Z,18.00
2022-08-05T18:44:49.287Z,18.70
2022-08-05T18:47:26.874Z,20.20
2022-08-05T18:50:15.516Z,13.30
2022-08-05T18:52:50.887Z,11.10
2022-08-05T18:55:22.261Z,13.50
2022-08-05T18:57:53.838Z,11.40
2022-08-05T19:00:27.105Z,13.40
2022-08-05T19:03:03.634Z,20.80
2022-08-05T19:06:13.251Z,8.70
2022-08-05T19:08:30.643Z,7.80
2022-08-05T19:11:04.821Z,12.30
2022-08-05T19:13:36.098Z,10.90
2022-08-05T19:16:25.198Z,13.30
2022-08-05T19:18:56.810Z,12.20
2022-08-05T19:21:27.514Z,12.30
2022-08-05T19:24:07.832Z,10.40
2022-08-05T19:26:54.889Z,11.10
2022-08-05T19:29:26.603Z,13.10
2022-08-05T19:32:11.496Z,12.90
2022-08-05T19:34:40.624Z,10.60
2022-08-05T19:37:10.322Z,14.60
2022-08-05T19:39:45.820Z,15.00
2022-08-05T19:42:35.002Z,11.50
2022-08-05T19:45:05.901Z,11.70
2022-08-05T19:47:37.555Z,11.00
2022-08-05T19:50:07.859Z,19.60
2022-08-05T19:52:38.840Z,13.50
2022-08-05T19:56:15.133Z,16.80
2022-08-05T19:58:14.671Z,13.70
2022-08-05T20:00:44.153Z,9.50
2022-08-05T20:03:13.042Z,11.20
2022-08-05T20:05:43.215Z,11.10
2022-08-05T20:08:17.953Z,11.40
2022-08-05T20:10:49.530Z,20.20
2022-08-05T20:13:54.541Z,23.10
2022-08-05T20:16:07.051Z,13.20
2022-08-05T20:18:36.155Z,12.00
2022-08-05T20:21:06.966Z,12.10
2022-08-05T20:23:40.449Z,9.70
2022-08-05T20:26:21.883Z,8.10
2022-08-05T20:28:55.780Z,11.40
2022-08-05T20:31:36.773Z,8.60
2022-08-05T20:34:12.485Z,9.70
2022-08-05T20:36:43.394Z,10.30
2022-08-05T20:39:16.119Z,9.60
2022-08-05T20:41:47.728Z,14.00
2022-08-05T20:44:29.857Z,10.80
2022-08-05T20:47:01.191Z,14.20
2022-08-05T20:49:29.309Z,12.80
2022-08-05T20:51:58.139Z,13.80
2022-08-05T20:54:55.229Z,14.40
2022-08-05T20:57:24.883Z,12.40
2022-08-05T21:00:20.011Z,10.20
2022-08-05T21:02:57.877Z,13.70
2022-08-05T21:05:37.991Z,12.10
2022-08-05T21:08:14.179Z,17.70
2022-08-05T21:10:48.700Z,10.20
2022-08-05T21:13:36.796Z,12.90
2022-08-05T21:16:06.380Z,11.10
2022-08-05T21:18:34.490Z,8.40
2022-08-05T21:21:04.105Z,14.00
2022-08-05T21:23:37.486Z,17.20
2022-08-05T21:26:08.194Z,9.10
2022-08-05T21:28:47.748Z,12.20
2022-08-05T21:31:19.635Z,10.50
2022-08-05T21:33:49.563Z,8.10
2022-08-05T21:36:27.455Z,13.60
2022-08-05T21:38:58.468Z,8.70
2022-08-05T21:41:33.684Z,11.30
2022-08-05T21:44:04.059Z,14.20
2022-08-05T21:46:34.650Z,12.50
2022-08-05T21:49:08.137Z,7.60
2022-08-05T21:52:21.927Z,9.90
2022-08-05T21:54:41.484Z,9.20
2022-08-05T21:57:30.657Z,12.60
2022-08-05T22:00:06.970Z,7.90
2022-08-05T22:02:43.744Z,9.40
2022-08-05T22:05:13.071Z,8.80
2022-08-05T22:07:59.492Z,10.80
2022-08-05T22:10:30.934Z,11.50
2022-08-05T22:14:05.050Z,7.50
2022-08-05T22:16:01.704Z,7.80
2022-08-05T22:18:35.831Z,9.00
2022-08-05T22:21:04.941Z,7.10
2022-08-05T22:24:12.817Z,6.80
2022-08-05T22:27:00.019Z,11.80
2022-08-05T22:29:30.790Z,13.80
2022-08-05T22:32:03.255Z,11.10
2022-08-05T22:34:32.935Z,8.80
2022-08-05T22:37:03.807Z,7.30
2022-08-05T22:39:34.605Z,13.00
2022-08-05T22:42:10.116Z,8.00
2022-08-05T22:44:48.446Z,9.50
2022-08-05T22:47:29.365Z,12.30
2022-08-05T22:50:20.595Z,9.00
2022-08-05T22:52:52.468Z,12.10
2022-08-05T22:55:22.157Z,14.60
2022-08-05T22:57:53.969Z,11.80
2022-08-05T23:00:23.845Z,14.60
2022-08-05T23:02:53.823Z,11.40
2022-08-05T23:05:22.800Z,8.90
2022-08-05T23:07:51.914Z,9.10
2022-08-05T23:10:23.608Z,6.20
2022-08-05T23:12:54.718Z,7.90
2022-08-05T23:15:26.974Z,7.20
2022-08-05T23:18:02.191Z,14.00
2022-08-05T23:20:32.936Z,8.70
2022-08-05T23:23:05.839Z,11.40
2022-08-05T23:25:53.571Z,8.30
2022-08-05T23:28:28.923Z,8.60
2022-08-05T23:31:16.706Z,8.00
2022-08-05T23:34:03.712Z,14.90
2022-08-05T23:36:38.414Z,9.80
2022-08-05T23:39:09.737Z,10.20
2022-08-05T23:44:16.918Z,8.60
2022-08-05T23:46:47.865Z,10.00
2022-08-05T23:49:22.335Z,13.80
2022-08-05T23:52:12.028Z,9.30
2022-08-05T23:54:46.012Z,14.10
2022-08-05T23:57:14.082Z,14.90
